createdAt,value
2023-05-24T00:02:36.625Z,6.53
2023-05-24T00:05:39.766Z,5.63
2023-05-24T00:08:41.464Z,5.82
2023-05-24T00:11:43.173Z,6.00
2023-05-24T00:14:44.909Z,5.85
2023-05-24T00:17:46.825Z,5.63
2023-05-24T00:20:50.178Z,6.53
2023-05-24T00:26:53.656Z,5.97
2023-05-24T00:29:55.423Z,5.72
2023-05-24T00:32:57.446Z,6.32
2023-05-24T00:36:00.618Z,7.47
2023-05-24T00:39:02.319Z,6.15
2023-05-24T00:42:04.440Z,6.57
2023-05-24T00:45:07.437Z,6.63
2023-05-24T00:48:10.095Z,5.90
2023-05-24T00:51:13.830Z,6.72
2023-05-24T00:54:16.009Z,6.13
2023-05-24T00:57:17.814Z,6.63
2023-05-24T01:00:19.953Z,6.68
2023-05-24T01:03:22.107Z,6.28
2023-05-24T01:06:25.864Z,6.75
2023-05-24T01:09:33.430Z,6.45
2023-05-24T01:12:46.206Z,7.78
2023-05-24T01:15:56.834Z,7.30
2023-05-24T01:19:02.529Z,7.75
2023-05-24T01:22:17.902Z,7.63
2023-05-24T01:25:36.176Z,7.65
2023-05-24T01:28:39.745Z,7.97
2023-05-24T01:31:42.807Z,7.22
2023-05-24T01:34:44.584Z,8.00
2023-05-24T01:37:46.368Z,8.85
2023-05-24T01:40:52.745Z,8.23
2023-05-24T01:44:03.472Z,7.53
2023-05-24T01:47:20.353Z,8.95
2023-05-24T01:50:26.352Z,7.60
2023-05-24T01:53:33.529Z,9.10
2023-05-24T01:56:37.130Z,9.10
2023-05-24T01:59:43.503Z,7.30
2023-05-24T02:02:45.470Z,8.00
2023-05-24T02:05:47.594Z,8.00
2023-05-24T02:08:49.550Z,7.75
2023-05-24T02:11:51.524Z,7.93
2023-05-24T02:14:54.666Z,8.35
2023-05-24T02:17:56.463Z,8.38
2023-05-24T02:20:58.154Z,7.88
2023-05-24T02:23:59.873Z,7.03
2023-05-24T02:27:01.816Z,7.97
2023-05-24T02:30:06.275Z,8.07
2023-05-24T02:33:08.091Z,8.27
2023-05-24T02:36:09.803Z,7.32
2023-05-24T02:39:11.513Z,7.28
2023-05-24T02:42:13.227Z,7.28
2023-05-24T02:45:16.327Z,7.03
2023-05-24T02:48:18.238Z,7.25
2023-05-24T02:51:20.006Z,6.68
2023-05-24T02:54:22.374Z,7.43
2023-05-24T02:57:24.375Z,6.95
2023-05-24T03:00:27.754Z,6.78
2023-05-24T03:06:31.658Z,6.13
2023-05-24T03:09:35.073Z,6.57
2023-05-24T03:15:39.734Z,6.57
2023-05-24T03:18:41.377Z,6.43
2023-05-24T03:21:43.132Z,7.38
2023-05-24T03:24:45.079Z,6.55
2023-05-24T03:27:46.809Z,7.15
2023-05-24T03:30:49.956Z,7.10
2023-05-24T03:33:51.725Z,6.72
2023-05-24T03:36:53.935Z,7.30
2023-05-24T03:39:55.917Z,6.97
2023-05-24T03:42:57.820Z,7.57
2023-05-24T03:46:00.916Z,7.03
2023-05-24T03:49:02.877Z,7.95
2023-05-24T03:52:05.040Z,7.78
2023-05-24T03:55:07.408Z,7.15
2023-05-24T03:58:09.151Z,7.35
2023-05-24T04:01:21.996Z,7.50
2023-05-24T04:04:31.731Z,6.43
2023-05-24T04:07:33.435Z,7.03
2023-05-24T04:10:35.163Z,7.25
2023-05-24T04:13:37.384Z,7.15
2023-05-24T04:16:40.490Z,6.68
2023-05-24T04:19:42.232Z,7.25
2023-05-24T04:22:43.965Z,7.55
2023-05-24T04:25:45.905Z,7.65
2023-05-24T04:28:47.859Z,7.10
2023-05-24T04:31:50.885Z,6.75
2023-05-24T04:34:52.622Z,7.85
2023-05-24T04:37:54.403Z,7.53
2023-05-24T04:40:56.371Z,7.60
2023-05-24T04:43:58.578Z,7.68
2023-05-24T04:47:02.008Z,8.05
2023-05-24T04:50:04.492Z,8.52
2023-05-24T04:53:06.218Z,8.60
2023-05-24T04:56:08.127Z,8.27
2023-05-24T04:59:09.828Z,9.38
2023-05-24T05:02:12.976Z,9.38
2023-05-24T05:05:14.694Z,10.32
2023-05-24T05:08:16.365Z,9.63
2023-05-24T05:11:18.507Z,10.70
2023-05-24T05:14:20.220Z,11.13
2023-05-24T05:17:23.257Z,9.52
2023-05-24T05:20:25.218Z,9.52
2023-05-24T05:23:27.077Z,9.18
2023-05-24T05:26:29.124Z,8.93
2023-05-24T05:29:30.826Z,9.32
2023-05-24T05:32:34.063Z,9.70
2023-05-24T05:35:35.832Z,9.48
2023-05-24T05:38:38.124Z,9.23
2023-05-24T05:41:40.394Z,9.45
2023-05-24T05:44:44.967Z,9.75
2023-05-24T05:47:48.123Z,10.20
2023-05-24T05:50:49.867Z,9.45
2023-05-24T05:53:51.587Z,9.15
2023-05-24T05:56:53.592Z,9.05
2023-05-24T05:59:55.548Z,9.00
2023-05-24T06:02:58.919Z,9.23
2023-05-24T06:06:01.024Z,8.23
2023-05-24T06:09:02.803Z,8.05
2023-05-24T06:12:05.401Z,8.07
2023-05-24T06:15:08.269Z,8.30
2023-05-24T06:18:11.345Z,8.30
2023-05-24T06:21:13.197Z,8.70
2023-05-24T06:24:15.630Z,8.45
2023-05-24T06:27:17.527Z,8.27
2023-05-24T06:30:19.320Z,7.65
2023-05-24T06:33:22.403Z,7.03
2023-05-24T06:36:24.084Z,7.35
2023-05-24T06:39:25.782Z,8.50
2023-05-24T06:42:27.737Z,6.90
2023-05-24T06:45:29.437Z,6.85
2023-05-24T06:48:32.582Z,6.75
2023-05-24T06:54:35.852Z,7.88
2023-05-24T06:57:37.784Z,7.85
2023-05-24T07:00:39.499Z,7.07
2023-05-24T07:03:42.668Z,7.28
2023-05-24T07:18:52.520Z,7.40
2023-05-24T07:21:54.569Z,8.80
2023-05-24T07:24:56.606Z,7.28
2023-05-24T07:27:58.545Z,6.07
2023-05-24T07:31:00.550Z,6.53
2023-05-24T07:34:03.579Z,6.47
2023-05-24T07:37:05.435Z,6.90
2023-05-24T07:40:08.314Z,6.35
2023-05-24T07:43:09.976Z,7.38
2023-05-24T07:46:11.891Z,7.85
2023-05-24T07:49:15.229Z,6.63
2023-05-24T07:52:16.950Z,7.15
2023-05-24T07:55:18.962Z,6.43
2023-05-24T07:58:20.990Z,6.25
2023-05-24T08:01:22.951Z,6.53
2023-05-24T08:04:25.998Z,5.85
2023-05-24T08:07:27.733Z,6.07
2023-05-24T08:10:29.734Z,6.13
2023-05-24T08:13:31.736Z,6.03
2023-05-24T08:16:33.751Z,5.65
2023-05-24T08:19:36.902Z,6.80
2023-05-24T08:22:38.652Z,6.00
2023-05-24T08:25:40.958Z,5.25
2023-05-24T08:28:42.794Z,5.82
2023-05-24T08:31:44.621Z,5.68
2023-05-24T08:34:48.317Z,5.15
2023-05-24T08:37:50.430Z,5.97
2023-05-24T08:40:52.105Z,5.18
2023-05-24T08:43:57.665Z,5.40
2023-05-24T08:46:59.894Z,5.63
2023-05-24T08:50:03.448Z,5.60
2023-05-24T08:53:07.271Z,6.07
2023-05-24T08:56:09.213Z,5.82
2023-05-24T08:59:11.054Z,6.00
2023-05-24T09:02:14.994Z,5.72
2023-05-24T09:05:18.636Z,5.35
2023-05-24T09:08:20.671Z,6.28
2023-05-24T09:11:24.474Z,5.53
2023-05-24T09:14:26.274Z,6.43
2023-05-24T09:17:31.296Z,6.95
2023-05-24T09:20:36.090Z,8.73
2023-05-24T09:23:38.488Z,6.80
2023-05-24T09:26:40.184Z,6.18
2023-05-24T09:29:43.147Z,7.50
2023-05-24T09:32:55.537Z,7.32
2023-05-24T09:36:00.013Z,7.32
2023-05-24T09:39:06.833Z,8.00
2023-05-24T09:42:08.905Z,7.03
2023-05-24T09:45:10.880Z,7.55
2023-05-24T09:48:13.633Z,8.00
2023-05-24T09:51:16.876Z,7.80
2023-05-24T09:54:18.935Z,7.35
2023-05-24T09:57:21.195Z,6.85
2023-05-24T10:00:24.167Z,7.07
2023-05-24T10:03:25.935Z,8.27
2023-05-24T10:06:31.030Z,7.90
2023-05-24T10:09:34.228Z,7.20
2023-05-24T10:12:37.404Z,9.90
2023-05-24T10:15:39.503Z,7.28
2023-05-24T10:18:41.210Z,6.95
2023-05-24T10:21:45.277Z,7.60
2023-05-24T10:24:50.002Z,7.28
2023-05-24T10:27:54.124Z,6.78
2023-05-24T10:31:03.196Z,7.70
2023-05-24T10:34:08.705Z,7.50
2023-05-24T10:37:12.316Z,7.05
2023-05-24T10:40:18.189Z,7.30
2023-05-24T10:43:21.799Z,6.15
2023-05-24T10:46:23.604Z,6.70
2023-05-24T10:49:26.767Z,5.97
2023-05-24T10:52:35.526Z,6.80
2023-05-24T10:55:51.881Z,6.55
2023-05-24T10:59:00.044Z,6.43
2023-05-24T11:02:02.652Z,6.38
2023-05-24T11:05:05.719Z,5.80
2023-05-24T11:14:19.317Z,6.15
2023-05-24T11:20:23.809Z,5.78
2023-05-24T11:23:27.042Z,5.75
2023-05-24T11:26:29.064Z,6.00
2023-05-24T11:29:31.106Z,5.97
2023-05-24T11:32:33.054Z,5.80
2023-05-24T11:35:34.856Z,5.88
2023-05-24T11:38:38.031Z,5.75
2023-05-24T11:41:41.070Z,5.75
2023-05-24T11:47:44.655Z,6.32
2023-05-24T11:50:49.875Z,5.80
2023-05-24T11:53:54.894Z,5.38
2023-05-24T11:56:56.823Z,5.47
2023-05-24T11:59:59.743Z,5.25
2023-05-24T12:03:01.617Z,5.43
2023-05-24T12:06:03.752Z,5.32
2023-05-24T12:09:07.353Z,5.32
2023-05-24T12:12:09.351Z,5.55
2023-05-24T12:15:11.609Z,5.30
2023-05-24T12:18:19.199Z,5.40
2023-05-24T12:21:20.878Z,4.93
2023-05-24T12:24:25.443Z,4.68
2023-05-24T12:27:28.174Z,5.03
2023-05-24T12:30:29.871Z,4.88
2023-05-24T12:33:31.920Z,5.60
2023-05-24T12:36:34.370Z,4.60
2023-05-24T12:39:37.499Z,5.22
2023-05-24T12:42:39.431Z,5.05
2023-05-24T12:45:41.175Z,5.13
2023-05-24T12:48:43.168Z,4.57
2023-05-24T12:51:47.186Z,5.45
2023-05-24T12:54:52.263Z,4.85
2023-05-24T12:57:54.899Z,4.82
2023-05-24T13:00:56.693Z,4.70
2023-05-24T13:03:58.439Z,4.63
2023-05-24T13:07:00.262Z,4.70
2023-05-24T13:10:03.676Z,5.53
2023-05-24T13:13:05.980Z,4.88
2023-05-24T13:16:08.004Z,4.35
2023-05-24T13:19:09.733Z,4.78
2023-05-24T13:22:11.437Z,4.93
2023-05-24T13:25:14.733Z,4.43
2023-05-24T13:28:16.426Z,5.07
2023-05-24T13:31:18.146Z,5.28
2023-05-24T13:34:19.931Z,5.57
2023-05-24T13:37:21.712Z,5.72
2023-05-24T13:40:24.808Z,5.32
2023-05-24T13:43:26.506Z,5.28
2023-05-24T13:46:29.050Z,6.13
2023-05-24T13:49:30.769Z,5.20
2023-05-24T13:52:32.467Z,4.90
2023-05-24T13:55:36.658Z,5.38
2023-05-24T13:58:38.400Z,5.55
2023-05-24T14:01:40.224Z,5.93
2023-05-24T14:04:42.216Z,4.28
2023-05-24T14:07:44.371Z,4.85
2023-05-24T14:10:47.592Z,5.05
2023-05-24T14:16:53.745Z,5.13
2023-05-24T14:19:55.547Z,5.07
2023-05-24T14:22:58.597Z,5.60
2023-05-24T14:29:03.408Z,4.82
2023-05-24T14:32:05.645Z,5.07
2023-05-24T14:35:08.366Z,5.05
2023-05-24T14:38:11.038Z,5.13
2023-05-24T14:41:14.157Z,5.03
2023-05-24T14:44:15.884Z,5.35
2023-05-24T14:47:17.664Z,4.68
2023-05-24T14:50:19.646Z,4.47
2023-05-24T14:53:21.340Z,4.78
2023-05-24T14:56:24.416Z,5.47
2023-05-24T15:02:27.698Z,5.40
2023-05-24T15:05:29.902Z,6.45
2023-05-24T15:08:33.051Z,5.72
2023-05-24T15:11:36.178Z,5.53
2023-05-24T15:14:38.050Z,5.93
2023-05-24T15:17:40.152Z,5.55
2023-05-24T15:20:42.245Z,5.80
2023-05-24T15:23:43.981Z,5.72
2023-05-24T15:26:47.040Z,5.38
2023-05-24T15:32:50.320Z,5.50
2023-05-24T15:35:52.180Z,5.57
2023-05-24T15:38:54.527Z,5.75
2023-05-24T15:41:57.779Z,5.35
2023-05-24T15:44:59.447Z,6.30
2023-05-24T15:48:01.543Z,5.95
2023-05-24T15:52:00.972Z,4.55
2023-05-24T15:54:25.200Z,5.03
2023-05-24T15:57:28.492Z,4.47
2023-05-24T16:00:30.224Z,3.80
2023-05-24T16:03:32.139Z,3.75
2023-05-24T16:06:34.071Z,3.75
2023-05-24T16:09:36.049Z,3.90
2023-05-24T16:12:39.367Z,3.95
2023-05-24T16:15:41.060Z,3.55
2023-05-24T16:18:42.780Z,3.05
2023-05-24T16:21:44.784Z,3.35
2023-05-24T16:24:46.500Z,3.33
2023-05-24T16:27:52.615Z,3.50
2023-05-24T16:30:58.356Z,3.97
2023-05-24T16:34:00.315Z,4.40
2023-05-24T16:37:09.249Z,3.80
2023-05-24T16:40:11.848Z,3.35
2023-05-24T16:43:14.995Z,3.85
2023-05-24T16:49:26.687Z,3.65
2023-05-24T16:52:28.563Z,4.57
2023-05-24T16:55:39.224Z,4.80
2023-05-24T16:58:48.267Z,4.65
2023-05-24T17:01:50.143Z,5.10
2023-05-24T17:04:51.912Z,4.38
2023-05-24T17:07:56.816Z,4.57
2023-05-24T17:10:58.836Z,4.07
2023-05-24T17:14:01.954Z,4.50
2023-05-24T17:17:06.641Z,4.05
2023-05-24T17:20:09.396Z,4.50
2023-05-24T17:23:11.122Z,4.38
2023-05-24T17:26:14.409Z,4.28
2023-05-24T17:29:17.521Z,4.72
2023-05-24T17:32:19.469Z,4.47
2023-05-24T17:35:21.250Z,4.35
2023-05-24T17:38:23.109Z,4.38
2023-05-24T17:41:24.929Z,4.28
2023-05-24T17:44:28.049Z,4.60
2023-05-24T17:47:29.846Z,4.47
2023-05-24T17:50:31.597Z,4.50
2023-05-24T17:53:33.648Z,3.78
2023-05-24T17:56:35.313Z,4.72
2023-05-24T17:59:38.459Z,4.70
2023-05-24T18:02:40.193Z,5.47
2023-05-24T18:05:42.209Z,5.05
2023-05-24T18:08:44.163Z,5.00
2023-05-24T18:11:46.168Z,5.03
2023-05-24T18:14:49.528Z,5.25
2023-05-24T18:17:51.562Z,5.65
2023-05-24T18:20:53.654Z,5.55
2023-05-24T18:23:55.484Z,5.68
2023-05-24T18:26:57.352Z,6.35
2023-05-24T18:30:00.499Z,6.20
2023-05-24T18:33:07.621Z,6.38
2023-05-24T18:36:09.832Z,6.65
2023-05-24T18:39:11.740Z,7.15
2023-05-24T18:42:13.414Z,7.13
2023-05-24T18:45:16.774Z,6.88
2023-05-24T18:48:18.704Z,6.85
2023-05-24T18:51:20.658Z,6.82
2023-05-24T18:54:22.870Z,6.82
2023-05-24T18:57:24.850Z,7.63
2023-05-24T19:00:28.095Z,7.90
2023-05-24T19:03:29.997Z,8.00
2023-05-24T19:06:32.108Z,7.45
2023-05-24T19:09:34.233Z,7.90
2023-05-24T19:12:36.355Z,9.18
2023-05-24T19:15:39.620Z,8.93
2023-05-24T19:18:44.125Z,8.82
2023-05-24T19:21:46.192Z,9.55
2023-05-24T19:24:48.022Z,9.30
2023-05-24T19:27:59.125Z,8.93
2023-05-24T19:31:03.832Z,8.13
2023-05-24T19:43:11.291Z,9.63
2023-05-24T19:46:14.680Z,8.40
2023-05-24T19:49:16.500Z,9.38
2023-05-24T19:52:18.352Z,8.18
2023-05-24T19:55:20.060Z,9.02
2023-05-24T19:58:22.119Z,8.55
2023-05-24T20:01:25.475Z,8.50
2023-05-24T20:04:27.272Z,9.27
2023-05-24T20:07:29.013Z,8.63
2023-05-24T20:10:30.818Z,9.02
2023-05-24T20:13:32.572Z,9.93
2023-05-24T20:16:35.660Z,10.27
2023-05-24T20:19:37.782Z,9.43
2023-05-24T20:22:39.574Z,9.25
2023-05-24T20:25:41.551Z,8.57
2023-05-24T20:28:43.411Z,9.60
2023-05-24T20:31:46.584Z,8.80
2023-05-24T20:34:48.341Z,9.20
2023-05-24T20:37:50.091Z,8.95
2023-05-24T20:40:51.910Z,8.50
2023-05-24T20:43:53.662Z,9.68
2023-05-24T20:46:56.796Z,9.77
2023-05-24T20:49:58.740Z,9.90
2023-05-24T20:53:00.464Z,9.43
2023-05-24T20:56:02.169Z,9.73
2023-05-24T20:59:03.901Z,9.70
2023-05-24T21:02:07.105Z,10.35
2023-05-24T21:08:10.837Z,9.65
2023-05-24T21:11:12.844Z,8.57
2023-05-24T21:14:14.630Z,9.00
2023-05-24T21:17:17.767Z,8.93
2023-05-24T21:20:19.601Z,9.15
2023-05-24T21:23:21.344Z,8.07
2023-05-24T21:26:23.047Z,8.93
2023-05-24T21:29:24.705Z,8.98
2023-05-24T21:32:28.449Z,7.97
2023-05-24T21:35:30.398Z,9.10
2023-05-24T21:38:32.101Z,7.88
2023-05-24T21:41:33.816Z,7.82
2023-05-24T21:44:35.494Z,8.40
2023-05-24T21:47:38.934Z,8.40
2023-05-24T21:50:40.948Z,8.07
2023-05-24T21:53:42.872Z,7.65
2023-05-24T21:56:45.101Z,8.30
2023-05-24T21:59:47.096Z,9.05
2023-05-24T22:02:50.197Z,8.50
2023-05-24T22:05:52.100Z,8.65
2023-05-24T22:08:54.024Z,9.20
2023-05-24T22:11:55.991Z,8.52
2023-05-24T22:14:58.920Z,8.68
2023-05-24T22:18:02.048Z,10.13
2023-05-24T22:21:03.922Z,9.50
2023-05-24T22:24:05.688Z,10.00
2023-05-24T22:27:07.582Z,10.13
2023-05-24T22:30:09.824Z,9.02
2023-05-24T22:33:12.938Z,9.13
2023-05-24T22:36:14.705Z,9.10
2023-05-24T22:39:16.387Z,8.18
2023-05-24T22:42:19.083Z,8.65
2023-05-24T22:45:20.863Z,9.02
2023-05-24T22:48:23.940Z,8.05
2023-05-24T22:51:25.679Z,7.85
2023-05-24T22:54:27.353Z,8.32
2023-05-24T22:57:29.215Z,7.63
2023-05-24T23:00:30.976Z,8.27
2023-05-24T23:03:34.122Z,7.95
2023-05-24T23:06:36.093Z,7.35
2023-05-24T23:09:37.768Z,8.05
2023-05-24T23:12:39.545Z,7.32
2023-05-24T23:15:41.382Z,7.85
2023-05-24T23:18:44.587Z,8.65
2023-05-24T23:21:46.462Z,7.72
2023-05-24T23:24:48.233Z,7.90
2023-05-24T23:27:50.159Z,8.07
2023-05-24T23:30:51.889Z,8.57
2023-05-24T23:33:54.953Z,8.70
2023-05-24T23:36:56.668Z,9.55
2023-05-24T23:39:58.382Z,10.00
2023-05-24T23:43:00.140Z,9.50
2023-05-24T23:46:01.836Z,8.75
2023-05-24T23:49:04.902Z,8.48
2023-05-24T23:52:07.093Z,9.68
2023-05-24T23:55:09.060Z,9.35
2023-05-24T23:58:10.773Z,9.60
